Time;durP1;ratioP1;P1;durP2;ratioP2;P2;SDS_P1;SDS_P2;PMS_P1;PMS_P2;Temp;Humidity;BMP_temperature;BMP_pressure;BME280_temperature;BME280_humidity;BME280_pressure;Samples;Min_cycle;Max_cycle;Signal;HPM_P1;HPM_P2
2023/08/03 00:01:58;;;;;;;2.63;0.93;;;21.80;77.30;21.20;95291.00;;;;5106756;28;20223;-87
2023/08/03 00:04:25;;;;;;;0.83;0.67;;;21.80;77.50;21.10;95292.00;;;;5101546;28;20713;-86
2023/08/03 00:06:52;;;;;;;0.90;0.60;;;21.80;77.80;21.20;95298.00;;;;5094198;28;20259;-86
2023/08/03 00:09:19;;;;;;;1.00;0.80;;;21.80;77.80;21.10;95298.00;;;;5113978;28;20195;-87
2023/08/03 00:11:48;;;;;;;1.10;1.00;;;21.80;77.80;21.10;95304.00;;;;5105820;28;20227;-87
2023/08/03 00:14:15;;;;;;;3.23;1.00;;;21.70;77.90;21.10;95309.00;;;;5110622;28;20247;-87
2023/08/03 00:16:42;;;;;;;2.57;0.70;;;21.70;78.20;21.10;95321.00;;;;5115191;28;20697;-87
2023/08/03 00:19:09;;;;;;;2.17;1.00;;;21.70;79.20;21.00;95318.00;;;;5109124;28;20618;-87
2023/08/03 00:21:37;;;;;;;1.33;1.20;;;21.70;78.80;21.00;95322.00;;;;5101989;28;20687;-87
2023/08/03 00:24:05;;;;;;;1.77;0.70;;;21.70;79.10;21.00;95325.00;;;;5095477;28;20199;-88
2023/08/03 00:26:33;;;;;;;1.30;0.80;;;21.70;79.30;21.00;95326.00;;;;5109379;28;20668;-87
2023/08/03 00:29:01;;;;;;;2.50;0.70;;;21.70;79.40;21.00;95328.00;;;;5110344;28;20241;-88
2023/08/03 00:31:45;;;;;;;1.50;0.70;;;21.70;79.40;21.00;95334.00;;;;5105532;28;20215;-88
2023/08/03 00:34:12;;;;;;;1.00;0.90;;;21.70;80.00;21.00;95315.00;;;;5113141;28;20605;-88
2023/08/03 00:36:55;;;;;;;0.83;0.77;;;21.70;79.50;21.00;95318.00;;;;5096802;28;20242;-87
2023/08/03 00:39:31;;;;;;;0.70;0.70;;;21.70;80.10;21.00;95305.00;;;;5104477;28;20221;-87
2023/08/03 00:41:58;;;;;;;0.70;0.70;;;21.70;79.70;21.00;95310.00;;;;5092986;28;20229;-87
2023/08/03 00:44:33;;;;;;;1.40;1.03;;;21.70;79.70;21.00;95321.00;;;;5102256;28;20255;-88
2023/08/03 00:47:05;;;;;;;1.77;0.97;;;21.70;80.00;21.00;95321.00;;;;5100633;28;20274;-87
2023/08/03 00:49:35;;;;;;;1.07;0.80;;;21.70;79.50;21.00;95325.00;;;;5102645;28;20214;-87
2023/08/03 00:52:10;;;;;;;1.17;0.80;;;21.70;79.50;21.00;95326.00;;;;5112754;28;20291;-87
2023/08/03 00:54:49;;;;;;;1.57;0.90;;;21.70;79.20;21.00;95313.00;;;;5107579;28;20202;-87
2023/08/03 00:57:16;;;;;;;0.83;0.80;;;21.70;78.90;21.00;95331.00;;;;5108015;28;20194;-88
2023/08/03 00:59:52;;;;;;;0.73;0.73;;;21.70;78.80;21.00;95332.00;;;;5115792;27;20669;-87
2023/08/03 01:02:20;;;;;;;0.90;0.87;;;21.70;79.50;21.00;95333.00;;;;5121597;27;20655;-88
2023/08/03 01:04:47;;;;;;;1.33;0.60;;;21.60;79.30;21.00;95327.00;;;;5093615;28;20606;-87
2023/08/03 01:07:14;;;;;;;0.93;0.60;;;21.60;79.50;21.00;95310.00;;;;5095423;28;20248;-87
2023/08/03 01:09:43;;;;;;;2.03;0.93;;;21.60;79.60;21.00;95316.00;;;;5114404;28;20206;-88
2023/08/03 01:12:10;;;;;;;2.37;0.77;;;21.60;79.80;21.00;95319.00;;;;5112679;28;20583;-87
2023/08/03 01:14:38;;;;;;;4.10;0.80;;;21.60;80.00;21.00;95310.00;;;;5114300;28;20234;-88
2023/08/03 01:17:07;;;;;;;0.63;0.60;;;21.60;80.10;21.00;95307.00;;;;5114765;28;20222;-88
2023/08/03 01:19:50;;;;;;;1.00;0.73;;;21.60;80.80;21.00;95307.00;;;;5115352;28;20244;-88
2023/08/03 01:22:20;;;;;;;1.97;0.90;;;21.60;79.90;21.00;95292.00;;;;5113086;28;20194;-89
2023/08/03 01:24:49;;;;;;;0.83;0.80;;;21.60;79.80;21.00;95289.00;;;;5113893;28;20232;-90
2023/08/03 01:27:16;;;;;;;1.27;0.90;;;21.60;80.00;21.00;95296.00;;;;5115269;28;20295;-88
2023/08/03 01:29:44;;;;;;;4.03;0.90;;;21.50;79.90;20.90;95279.00;;;;5115672;28;20206;-88
2023/08/03 01:32:12;;;;;;;1.10;0.90;;;21.60;79.80;20.90;95276.00;;;;5112991;28;20211;-88
2023/08/03 01:34:39;;;;;;;2.47;1.00;;;21.50;79.70;20.90;95281.00;;;;5113689;28;20286;-88
2023/08/03 01:37:08;;;;;;;1.00;0.90;;;21.60;79.90;20.90;95280.00;;;;5112705;28;20191;-88
2023/08/03 01:39:35;;;;;;;1.53;0.70;;;21.60;80.00;20.90;95276.00;;;;5113048;28;20267;-87
2023/08/03 01:42:04;;;;;;;1.53;1.10;;;21.60;79.80;20.90;95286.00;;;;5112812;28;20211;-88
2023/08/03 01:44:32;;;;;;;0.73;0.73;;;21.50;79.70;20.90;95278.00;;;;5113175;28;20202;-88
2023/08/03 01:47:00;;;;;;;0.67;0.60;;;21.50;79.70;20.80;95309.00;;;;5112562;28;20229;-88
2023/08/03 01:49:30;;;;;;;1.43;1.03;;;21.50;79.80;20.80;95294.00;;;;5111963;28;20203;-89
2023/08/03 01:52:01;;;;;;;1.53;0.97;;;21.50;79.80;20.80;95282.00;;;;5113680;28;20215;-88
2023/08/03 01:54:35;;;;;;;1.00;0.80;;;21.50;79.80;20.80;95302.00;;;;5114016;28;20721;-88
2023/08/03 01:57:19;;;;;;;1.23;1.10;;;21.40;79.90;20.80;95297.00;;;;5114106;28;20605;-88
2023/08/03 01:59:50;;;;;;;3.97;1.00;;;21.40;79.60;20.80;95291.00;;;;5114111;28;20662;-88
2023/08/03 02:02:47;;;;;;;1.00;1.00;;;21.40;79.30;20.70;95285.00;;;;5113741;28;20201;-88
2023/08/03 02:05:24;;;;;;;0.80;0.80;;;22.40;79.90;20.70;95301.00;;;;5113492;28;20175;-88
2023/08/03 02:10:40;;;;;;;1.67;0.90;;;21.40;79.80;20.70;95285.00;;;;5112687;28;20213;-88
2023/08/03 02:13:13;;;;;;;1.23;1.10;;;21.30;79.80;20.70;95288.00;;;;5112994;28;20243;-88
2023/08/03 02:15:41;;;;;;;1.63;1.00;;;21.30;79.80;20.70;95286.00;;;;5112429;28;20205;-89
2023/08/03 02:18:10;;;;;;;3.20;1.33;;;21.30;79.50;20.70;95288.00;;;;5112085;28;20670;-89
2023/08/03 02:20:39;;;;;;;2.43;1.33;;;21.30;79.50;20.70;95293.00;;;;5112514;28;20241;-88
2023/08/03 02:23:11;;;;;;;1.90;1.50;;;21.30;79.40;20.70;95293.00;;;;5113923;28;20254;-88
2023/08/03 02:25:43;;;;;;;1.60;1.20;;;21.30;79.80;20.70;95295.00;;;;5117208;28;20205;-88
2023/08/03 02:28:12;;;;;;;3.20;1.30;;;21.30;79.90;20.60;95300.00;;;;5115170;28;20617;-89
2023/08/03 02:30:42;;;;;;;1.67;1.10;;;21.30;79.90;20.60;95302.00;;;;5115076;28;20260;-88
2023/08/03 02:33:09;;;;;;;1.50;1.03;;;21.30;80.20;20.60;95297.00;;;;5113191;28;20210;-88
2023/08/03 02:35:39;;;;;;;2.20;0.90;;;21.30;80.30;20.60;95298.00;;;;5114078;28;20259;-89
2023/08/03 02:38:06;;;;;;;1.10;0.90;;;21.30;80.40;20.60;95317.00;;;;5114067;28;20211;-88
2023/08/03 02:40:33;;;;;;;1.07;0.83;;;21.30;80.20;20.60;95316.00;;;;5114495;28;20222;-87
2023/08/03 02:43:00;;;;;;;1.17;1.07;;;21.30;79.90;20.60;95315.00;;;;5114502;28;20281;-87
2023/08/03 02:45:29;;;;;;;2.17;1.00;;;21.30;80.50;20.60;95314.00;;;;5114618;28;20289;-87
2023/08/03 02:47:56;;;;;;;1.10;0.73;;;21.30;79.70;20.60;95326.00;;;;5116498;28;20524;-87
2023/08/03 02:50:29;;;;;;;1.23;0.90;;;21.30;79.60;20.50;95305.00;;;;5116406;28;20218;-87
2023/08/03 02:52:57;;;;;;;1.13;1.03;;;21.20;79.40;20.50;95305.00;;;;5116474;28;20198;-87
2023/08/03 02:55:24;;;;;;;1.10;1.00;;;21.10;79.30;20.50;95309.00;;;;5116195;28;20197;-87
2023/08/03 02:57:51;;;;;;;1.20;0.80;;;21.20;79.20;20.50;95305.00;;;;5116894;28;20263;-87
2023/08/03 03:00:18;;;;;;;1.37;1.00;;;21.20;79.40;20.40;95310.00;;;;5115870;28;20222;-87
2023/08/03 03:02:48;;;;;;;1.43;0.97;;;21.10;79.00;20.40;95307.00;;;;5115633;28;20198;-88
2023/08/03 03:05:26;;;;;;;1.53;1.37;;;21.10;78.70;20.40;95319.00;;;;5115588;28;20205;-88
2023/08/03 03:07:58;;;;;;;3.83;1.00;;;21.10;78.90;20.30;95309.00;;;;5114914;28;20213;-87
2023/08/03 03:10:37;;;;;;;1.83;1.17;;;21.00;78.90;20.30;95314.00;;;;5115747;28;20221;-87
2023/08/03 03:13:07;;;;;;;1.27;1.17;;;21.00;79.00;20.20;95298.00;;;;5114940;28;20303;-88
2023/08/03 03:15:37;;;;;;;1.33;0.97;;;21.00;78.80;20.20;95314.00;;;;5115523;28;20254;-87
2023/08/03 03:18:10;;;;;;;1.07;0.80;;;20.90;78.50;20.20;95296.00;;;;5115441;28;20260;-86
2023/08/03 03:20:40;;;;;;;1.70;0.90;;;20.90;78.10;20.10;95320.00;;;;5115266;28;20221;-87
2023/08/03 03:23:07;;;;;;;1.30;0.90;;;20.80;78.30;20.10;95331.00;;;;5115033;28;20199;-88
2023/08/03 03:25:34;;;;;;;1.83;1.00;;;20.80;78.30;20.10;95325.00;;;;5115396;28;20194;-87
2023/08/03 03:28:04;;;;;;;3.13;1.10;;;20.80;78.20;20.00;95323.00;;;;5113287;28;20275;-87
2023/08/03 03:30:31;;;;;;;1.93;1.20;;;20.80;78.60;20.00;95317.00;;;;5112558;28;20222;-88
2023/08/03 03:32:59;;;;;;;1.10;0.93;;;20.70;78.50;20.00;95326.00;;;;5112655;28;20270;-88
2023/08/03 03:35:36;;;;;;;1.57;0.90;;;20.70;78.50;20.00;95338.00;;;;5109935;28;20561;-87
2023/08/03 03:38:03;;;;;;;1.47;1.00;;;20.70;78.50;20.00;95320.00;;;;5111375;28;20195;-88
2023/08/03 03:40:31;;;;;;;1.30;0.77;;;20.70;78.50;19.90;95318.00;;;;5113259;28;20709;-87
2023/08/03 03:42:58;;;;;;;1.70;0.80;;;20.60;78.60;19.90;95294.00;;;;5113665;28;20198;-87
2023/08/03 03:45:25;;;;;;;1.00;1.00;;;20.60;78.40;19.90;95308.00;;;;5115178;28;20706;-88
2023/08/03 03:47:53;;;;;;;2.03;0.90;;;20.60;78.60;19.90;95296.00;;;;5114612;28;20711;-87
2023/08/03 03:50:20;;;;;;;2.30;1.10;;;20.60;78.80;19.80;95304.00;;;;5114944;28;20225;-87
2023/08/03 03:52:49;;;;;;;1.43;0.90;;;20.60;78.70;19.80;95297.00;;;;5114975;28;20199;-88
2023/08/03 03:55:16;;;;;;;1.67;0.77;;;20.50;78.50;19.80;95302.00;;;;5114430;28;20607;-87
2023/08/03 03:57:43;;;;;;;2.33;1.17;;;20.50;78.40;19.80;95324.00;;;;5111755;22;21187;-82
2023/08/03 04:00:11;;;;;;;1.87;0.77;;;20.50;78.30;19.70;95331.00;;;;5098049;28;20199;-83
2023/08/03 04:02:39;;;;;;;2.87;1.10;;;20.50;78.50;19.70;95326.00;;;;5101874;28;20609;-82
2023/08/03 04:05:06;;;;;;;5.80;1.20;;;20.50;78.50;19.70;95332.00;;;;5095844;28;20219;-82
2023/08/03 04:07:33;;;;;;;2.10;1.10;;;20.40;78.20;19.70;95333.00;;;;5095926;28;20255;-82
2023/08/03 04:10:02;;;;;;;2.57;1.20;;;20.40;78.00;19.70;95323.00;;;;5099938;22;20664;-87
2023/08/03 04:12:29;;;;;;;2.13;0.93;;;20.40;78.10;19.60;95320.00;;;;5053159;28;20580;-88
2023/08/03 04:14:56;;;;;;;3.90;1.10;;;20.40;78.40;19.60;95343.00;;;;5052702;28;20228;-87
2023/08/03 04:17:23;;;;;;;3.93;1.40;;;20.40;78.50;19.60;95356.00;;;;5045623;28;20772;-87
2023/08/03 04:19:53;;;;;;;1.97;1.00;;;20.30;78.20;19.60;95362.00;;;;5043502;28;20227;-87
2023/08/03 04:22:21;;;;;;;2.00;1.13;;;20.30;78.20;19.60;95354.00;;;;5051519;28;20197;-87
2023/08/03 04:24:51;;;;;;;2.67;1.60;;;20.30;78.20;19.60;95365.00;;;;5050045;28;20608;-87
2023/08/03 04:27:22;;;;;;;2.63;1.20;;;20.30;78.20;19.60;95368.00;;;;5050741;28;20284;-87
2023/08/03 04:29:49;;;;;;;4.07;1.10;;;20.30;78.30;19.50;95368.00;;;;5051956;28;20287;-87
2023/08/03 04:32:16;;;;;;;2.20;0.90;;;20.30;78.30;19.50;95366.00;;;;5046217;28;20300;-88
2023/08/03 04:34:43;;;;;;;2.00;1.10;;;20.20;78.40;19.50;95366.00;;;;5042860;28;20205;-87
2023/08/03 04:37:13;;;;;;;2.30;1.33;;;20.20;78.50;19.50;95361.00;;;;5042440;28;20200;-87
2023/08/03 04:39:49;;;;;;;2.73;1.00;;;20.20;78.50;19.50;95356.00;;;;5044101;28;20193;-86
2023/08/03 04:42:23;;;;;;;2.17;1.27;;;20.20;78.50;19.50;95349.00;;;;5048690;28;20244;-87
2023/08/03 04:44:50;;;;;;;2.23;0.83;;;20.20;78.60;19.50;95353.00;;;;5048244;28;20633;-87
2023/08/03 04:47:20;;;;;;;3.63;1.30;;;20.20;78.60;19.50;95358.00;;;;5051847;28;20225;-86
2023/08/03 04:50:03;;;;;;;5.30;1.50;;;20.20;78.70;19.50;95342.00;;;;5045468;28;20295;-86
2023/08/03 04:52:30;;;;;;;2.17;1.10;;;20.20;78.60;19.50;95348.00;;;;5046942;28;20570;-90
2023/08/03 04:54:57;;;;;;;3.90;0.93;;;20.20;78.50;19.50;95359.00;;;;5044280;28;20196;-86
2023/08/03 04:57:26;;;;;;;1.40;0.83;;;20.20;78.60;19.50;95359.00;;;;5044740;28;20250;-87
2023/08/03 04:59:56;;;;;;;3.77;1.10;;;20.20;78.70;19.50;95352.00;;;;5051493;28;20229;-87
2023/08/03 05:02:23;;;;;;;4.37;1.47;;;20.20;78.70;19.50;95366.00;;;;5045183;28;20193;-86
2023/08/03 05:04:50;;;;;;;3.47;1.03;;;20.20;78.60;19.50;95362.00;;;;5053789;28;20242;-86
2023/08/03 05:07:18;;;;;;;2.10;1.07;;;20.20;78.60;19.50;95365.00;;;;5053153;28;20228;-87
2023/08/03 05:09:45;;;;;;;2.73;1.13;;;20.20;78.60;19.60;95369.00;;;;5050667;28;20251;-87
2023/08/03 05:12:12;;;;;;;1.33;0.80;;;20.20;78.50;19.60;95372.00;;;;5053435;28;20282;-86
2023/08/03 05:14:41;;;;;;;1.93;1.00;;;20.20;78.50;19.50;95367.00;;;;5052605;28;20195;-87
2023/08/03 05:17:09;;;;;;;3.33;1.00;;;20.20;78.20;19.60;95366.00;;;;5051200;28;20197;-87
2023/08/03 05:19:36;;;;;;;3.43;1.10;;;20.20;78.30;19.60;95364.00;;;;5045679;28;20201;-85
2023/08/03 05:22:03;;;;;;;3.57;1.43;;;20.20;78.30;19.60;95378.00;;;;5051020;28;20628;-87
2023/08/03 05:24:31;;;;;;;2.83;0.93;;;20.20;78.30;19.60;95373.00;;;;5051929;28;20198;-86
2023/08/03 05:26:58;;;;;;;2.73;1.10;;;20.20;78.20;19.70;95383.00;;;;5050603;28;20225;-87
2023/08/03 05:29:25;;;;;;;2.27;1.00;;;20.30;78.10;19.70;95384.00;;;;5044924;28;20688;-86
2023/08/03 05:31:53;;;;;;;3.90;1.00;;;20.30;78.10;19.70;95378.00;;;;5044330;28;20266;-86
2023/08/03 05:34:20;;;;;;;4.13;1.27;;;20.30;78.30;19.70;95385.00;;;;5030336;28;20301;-86
2023/08/03 05:36:51;;;;;;;3.33;1.67;;;20.30;78.20;19.70;95391.00;;;;5032587;28;20608;-87
2023/08/03 05:39:19;;;;;;;2.63;1.03;;;20.30;78.20;19.70;95385.00;;;;5043585;28;20194;-86
2023/08/03 05:41:46;;;;;;;3.53;1.20;;;20.40;78.10;19.70;95376.00;;;;5052036;28;20249;-87
2023/08/03 05:44:14;;;;;;;2.13;1.00;;;20.40;77.90;19.80;95389.00;;;;5050467;28;20627;-85
2023/08/03 05:46:41;;;;;;;1.13;0.80;;;20.40;77.90;19.80;95380.00;;;;5051625;28;20224;-87
2023/08/03 05:49:10;;;;;;;2.20;1.00;;;20.40;77.80;19.80;95387.00;;;;5051864;28;20733;-87
2023/08/03 05:51:39;;;;;;;3.00;1.10;;;20.40;77.60;19.80;95380.00;;;;5049100;28;20269;-86
2023/08/03 05:54:09;;;;;;;2.57;1.00;;;20.40;77.30;19.90;95379.00;;;;5047287;28;20199;-86
2023/08/03 05:56:39;;;;;;;3.40;1.17;;;20.50;77.30;19.90;95397.00;;;;5047487;28;20197;-87
2023/08/03 05:59:24;;;;;;;5.10;1.30;;;20.50;77.30;19.90;95388.00;;;;5045451;28;20246;-88
2023/08/03 06:01:53;;;;;;;4.57;1.20;;;20.50;76.90;19.90;95408.00;;;;5041495;28;20243;-86
2023/08/03 06:04:21;;;;;;;1.37;0.90;;;20.50;76.90;20.00;95399.00;;;;5039610;28;20203;-85
2023/08/03 06:06:49;;;;;;;1.63;0.90;;;20.60;76.90;20.00;95397.00;;;;5036100;28;20299;-85
2023/08/03 06:09:17;;;;;;;2.87;1.20;;;20.60;76.90;20.00;95402.00;;;;5034576;28;20403;-84
2023/08/03 06:11:45;;;;;;;1.90;0.83;;;20.60;77.00;20.10;95401.00;;;;5034709;28;20212;-84
2023/08/03 06:14:16;;;;;;;1.83;1.10;;;20.60;76.90;20.10;95402.00;;;;5043313;28;20235;-85
2023/08/03 06:16:45;;;;;;;1.30;1.20;;;20.70;76.50;20.10;95403.00;;;;5042165;28;20608;-84
2023/08/03 06:19:16;;;;;;;2.80;1.00;;;20.70;76.10;20.20;95403.00;;;;5045791;28;20204;-87
2023/08/03 06:22:00;;;;;;;;;;;;;;;;;;;;;
2023/08/03 06:24:28;;;;;;;3.70;0.97;;;20.80;75.80;20.20;95421.00;;;;5041732;28;20213;-86
2023/08/03 06:26:58;;;;;;;2.63;1.10;;;20.80;75.80;20.20;95437.00;;;;5041986;28;20200;-86
2023/08/03 06:29:28;;;;;;;2.37;1.20;;;20.80;75.10;20.30;95426.00;;;;5043852;28;20217;-86
2023/08/03 06:31:58;;;;;;;1.27;0.80;;;20.80;74.80;20.30;95429.00;;;;5042151;28;20250;-86
2023/08/03 06:34:28;;;;;;;2.17;0.70;;;20.80;74.70;20.30;95442.00;;;;5038596;28;20196;-86
2023/08/03 06:36:59;;;;;;;2.03;0.80;;;20.40;74.60;20.40;95440.00;;;;5044522;28;20257;-86
2023/08/03 06:39:33;;;;;;;1.57;0.70;;;20.90;74.20;20.40;95429.00;;;;5038426;28;20266;-86
2023/08/03 06:42:02;;;;;;;1.90;0.70;;;20.90;73.90;20.40;95432.00;;;;5040744;28;20309;-85
2023/08/03 06:44:31;;;;;;;1.87;0.70;;;21.00;73.80;20.40;95422.00;;;;5040791;28;20197;-84
2023/08/03 06:46:58;;;;;;;1.10;0.80;;;21.00;74.30;20.50;95430.00;;;;5039476;28;20240;-86
2023/08/03 06:49:30;;;;;;;2.37;0.70;;;21.00;73.30;20.50;95442.00;;;;5040559;28;20236;-86
2023/08/03 06:51:59;;;;;;;2.50;0.80;;;21.10;73.30;20.50;95446.00;;;;5041479;28;20310;-84
2023/08/03 06:54:26;;;;;;;4.53;1.10;;;21.10;73.00;20.60;95463.00;;;;5047573;28;20627;-85
2023/08/03 06:56:54;;;;;;;3.93;0.57;;;21.10;72.80;20.60;95458.00;;;;5045225;28;20649;-86
2023/08/03 06:59:21;;;;;;;0.60;0.50;;;21.20;72.10;20.70;95473.00;;;;5047620;28;20205;-85
2023/08/03 07:01:51;;;;;;;2.60;0.73;;;21.20;72.00;20.70;95468.00;;;;5045147;28;20223;-85
2023/08/03 07:04:24;;;;;;;1.50;0.50;;;21.20;71.60;20.70;95447.00;;;;5046941;28;20216;-87
2023/08/03 07:06:51;;;;;;;1.90;0.70;;;21.30;71.20;20.80;95459.00;;;;5048495;28;20207;-87
2023/08/03 07:09:22;;;;;;;0.97;0.50;;;21.30;70.80;20.80;95468.00;;;;5050167;28;20688;-88
2023/08/03 07:11:49;;;;;;;1.47;0.80;;;21.40;70.60;20.90;95469.00;;;;5080700;22;20270;-80
2023/08/03 07:14:17;;;;;;;1.30;0.60;;;21.40;71.10;20.90;95465.00;;;;5061223;28;20296;-80
2023/08/03 07:16:44;;;;;;;0.80;0.60;;;21.40;70.80;21.00;95465.00;;;;5061631;28;20237;-81
2023/08/03 07:19:16;;;;;;;2.33;0.67;;;21.50;70.20;21.10;95461.00;;;;5059310;28;20665;-81
2023/08/03 07:21:43;;;;;;;1.60;0.80;;;21.60;70.00;21.20;95459.00;;;;5058658;28;20255;-81
2023/08/03 07:24:11;;;;;;;1.60;0.40;;;21.60;70.70;21.30;95453.00;;;;5055674;28;20278;-80
2023/08/03 07:26:40;;;;;;;4.20;1.17;;;21.70;69.70;21.40;95447.00;;;;5056399;28;20192;-81
2023/08/03 07:29:08;;;;;;;2.70;0.70;;;21.80;69.20;21.50;95449.00;;;;5052974;28;20307;-81
2023/08/03 07:31:37;;;;;;;1.70;0.50;;;21.90;69.30;21.60;95452.00;;;;5053531;28;20192;-81
2023/08/03 07:34:04;;;;;;;1.07;0.43;;;22.00;69.10;21.70;95451.00;;;;5057504;28;20247;-81
2023/08/03 07:36:32;;;;;;;1.87;0.60;;;22.10;68.50;21.90;95462.00;;;;5052606;28;20197;-81
2023/08/03 07:38:59;;;;;;;0.93;0.50;;;22.20;68.30;22.00;95475.00;;;;5055004;28;21002;-80
2023/08/03 07:41:27;;;;;;;2.20;0.60;;;22.30;67.70;22.10;95485.00;;;;5051683;28;20262;-81
2023/08/03 07:43:56;;;;;;;1.83;0.57;;;22.40;67.80;22.30;95491.00;;;;5046443;28;20256;-81
2023/08/03 07:46:24;;;;;;;1.60;0.67;;;22.60;67.60;22.40;95496.00;;;;5048040;28;20193;-80
2023/08/03 07:48:51;;;;;;;1.50;0.47;;;22.70;66.70;22.50;95485.00;;;;5047913;28;20605;-80
2023/08/03 07:51:19;;;;;;;1.63;0.70;;;22.80;65.70;22.60;95495.00;;;;5049264;28;20207;-80
2023/08/03 07:53:46;;;;;;;2.13;0.77;;;22.90;65.00;22.80;95496.00;;;;5047864;28;20286;-80
2023/08/03 07:56:17;;;;;;;1.00;0.57;;;23.10;65.40;22.90;95494.00;;;;5049991;28;20286;-80
2023/08/03 07:58:45;;;;;;;0.70;0.30;;;23.20;63.80;23.00;95497.00;;;;5049143;28;20207;-80
2023/08/03 08:01:14;;;;;;;1.07;0.60;;;23.30;64.30;23.20;95503.00;;;;5051614;28;20201;-82
2023/08/03 08:03:43;;;;;;;3.23;0.80;;;23.40;63.80;23.30;95503.00;;;;5034857;28;20283;-81
2023/08/03 08:06:15;;;;;;;3.77;0.50;;;23.60;64.40;23.40;95507.00;;;;5049458;28;20204;-81
2023/08/03 08:08:42;;;;;;;1.83;0.50;;;23.70;63.30;23.50;95497.00;;;;5052317;28;20220;-81
2023/08/03 08:11:11;;;;;;;0.70;0.33;;;23.80;61.50;23.60;95505.00;;;;5048307;28;20583;-80
2023/08/03 08:13:39;;;;;;;2.80;0.60;;;23.90;62.50;23.80;95521.00;;;;5047679;28;20225;-80
2023/08/03 08:16:09;;;;;;;0.87;0.33;;;24.10;61.90;23.90;95520.00;;;;5032825;28;20207;-80
2023/08/03 08:18:39;;;;;;;0.80;0.50;;;24.10;61.20;24.00;95524.00;;;;5049629;28;20287;-80
2023/08/03 08:21:09;;;;;;;1.33;0.60;;;24.30;60.80;24.10;95515.00;;;;5049489;28;20189;-81
2023/08/03 08:23:38;;;;;;;2.03;0.60;;;24.40;61.30;24.30;95516.00;;;;5050881;28;20279;-81
2023/08/03 08:26:12;;;;;;;1.33;0.50;;;24.60;61.30;24.40;95537.00;;;;5049899;28;20228;-80
2023/08/03 08:28:40;;;;;;;1.47;0.30;;;24.70;59.40;24.50;95525.00;;;;5046952;28;20685;-83
2023/08/03 08:31:08;;;;;;;0.90;0.60;;;24.70;59.50;24.60;95545.00;;;;5044425;28;20273;-81
2023/08/03 08:33:37;;;;;;;1.83;0.50;;;24.90;59.40;24.70;95528.00;;;;5048432;28;20196;-81
2023/08/03 08:36:05;;;;;;;1.37;0.30;;;25.00;59.10;24.80;95544.00;;;;5046553;28;20199;-81
2023/08/03 08:38:33;;;;;;;1.90;0.40;;;25.10;58.80;24.90;95529.00;;;;5051366;28;20201;-81
2023/08/03 08:41:03;;;;;;;0.73;0.30;;;25.20;58.40;25.00;95532.00;;;;5048266;28;21458;-81
2023/08/03 08:43:30;;;;;;;2.60;0.60;;;25.30;57.60;25.10;95523.00;;;;5050494;28;20205;-82
2023/08/03 08:45:57;;;;;;;1.03;0.50;;;25.40;57.20;25.20;95537.00;;;;5050083;28;20205;-81
2023/08/03 08:48:27;;;;;;;2.20;0.63;;;25.50;57.90;25.30;95508.00;;;;5052535;28;20220;-82
2023/08/03 08:51:01;;;;;;;0.83;0.50;;;25.60;57.40;25.40;95528.00;;;;5051193;28;20268;-81
2023/08/03 08:53:29;;;;;;;1.13;0.50;;;25.70;57.00;25.50;95538.00;;;;5048329;28;20238;-81
2023/08/03 08:55:56;;;;;;;1.10;0.50;;;25.80;57.80;25.60;95551.00;;;;5014988;28;20224;-81
2023/08/03 08:58:24;;;;;;;0.87;0.47;;;25.90;56.80;25.80;95541.00;;;;5046869;28;20188;-81
2023/08/03 09:00:51;;;;;;;0.83;0.33;;;26.00;56.70;25.80;95541.00;;;;5048769;28;20193;-81
2023/08/03 09:03:19;;;;;;;3.97;0.90;;;26.10;56.00;25.90;95542.00;;;;5050628;28;20204;-82
2023/08/03 09:06:00;;;;;;;1.50;0.60;;;26.20;55.00;26.00;95537.00;;;;5049497;28;20221;-81
2023/08/03 09:08:28;;;;;;;0.77;0.50;;;26.30;55.20;26.10;95535.00;;;;5049271;28;20228;-82
2023/08/03 09:10:57;;;;;;;1.57;0.50;;;26.30;54.00;26.20;95533.00;;;;5052933;28;20211;-81
2023/08/03 09:13:31;;;;;;;2.53;0.60;;;26.40;54.60;26.20;95546.00;;;;5049529;28;20201;-82
2023/08/03 09:15:59;;;;;;;0.77;0.40;;;26.50;54.40;26.30;95543.00;;;;5051546;28;20212;-81
2023/08/03 09:18:29;;;;;;;0.80;0.30;;;26.60;54.50;26.40;95547.00;;;;5052223;28;20646;-82
2023/08/03 09:21:12;;;;;;;0.90;0.40;;;26.60;54.10;26.50;95556.00;;;;5051005;28;20201;-81
2023/08/03 09:23:39;;;;;;;1.40;0.30;;;26.70;53.10;26.60;95553.00;;;;5037214;28;20670;-81
2023/08/03 09:26:08;;;;;;;0.60;0.33;;;26.80;54.40;26.70;95563.00;;;;5047442;28;20200;-81
2023/08/03 09:28:36;;;;;;;1.27;0.70;;;26.90;53.80;26.80;95555.00;;;;5034204;28;20217;-81
2023/08/03 09:31:05;;;;;;;1.23;0.30;;;27.00;53.90;26.90;95550.00;;;;5048997;28;20291;-81
2023/08/03 09:33:34;;;;;;;1.30;0.40;;;27.10;54.10;27.10;95554.00;;;;5046712;28;20276;-81
2023/08/03 09:36:14;;;;;;;0.73;0.38;;;27.20;54.40;27.20;95568.00;;;;5050543;28;20207;-81
2023/08/03 09:38:42;;;;;;;0.73;0.40;;;27.40;52.60;27.30;95553.00;;;;5045925;28;20541;-83
2023/08/03 09:41:10;;;;;;;0.32;0.32;;;27.50;53.50;27.40;95572.00;;;;5048094;28;20193;-83
2023/08/03 09:43:40;;;;;;;0.60;0.20;;;27.60;53.00;27.50;95555.00;;;;5049721;28;20193;-81
2023/08/03 09:46:08;;;;;;;2.08;0.50;;;27.70;53.40;27.60;95583.00;;;;5044136;28;20216;-81
2023/08/03 09:48:36;;;;;;;1.17;0.45;;;27.80;53.70;27.70;95571.00;;;;5049148;28;20259;-81
2023/08/03 09:51:08;;;;;;;1.50;0.43;;;27.90;53.40;27.80;95571.00;;;;5046712;28;20210;-82
2023/08/03 09:53:41;;;;;;;1.77;0.57;;;28.00;53.30;27.90;95564.00;;;;5049194;28;20617;-82
2023/08/03 09:56:09;;;;;;;0.50;0.30;;;28.20;52.10;28.00;95564.00;;;;5030463;28;20201;-83
2023/08/03 09:58:48;;;;;;;1.25;0.30;;;28.30;52.70;28.10;95567.00;;;;5047472;28;20577;-84
2023/08/03 10:01:20;;;;;;;1.35;0.40;;;28.40;52.40;28.30;95570.00;;;;5047763;28;20205;-81
2023/08/03 10:03:58;;;;;;;0.55;0.30;;;28.50;51.90;28.30;95579.00;;;;5048640;28;20755;-81
2023/08/03 10:06:31;;;;;;;0.22;0.20;;;28.60;51.60;28.40;95572.00;;;;5049763;28;20200;-82
2023/08/03 10:09:05;;;;;;;1.05;0.30;;;28.80;51.00;28.50;95584.00;;;;5053687;28;20323;-83
2023/08/03 10:11:42;;;;;;;1.33;0.60;;;28.90;50.10;28.60;95579.00;;;;5050984;28;20207;-81
2023/08/03 10:14:13;;;;;;;0.50;0.30;;;29.00;50.50;28.70;95584.00;;;;5062659;28;20212;-83
2023/08/03 10:16:42;;;;;;;0.50;0.22;;;29.10;50.20;28.70;95586.00;;;;5051053;28;20692;-82
2023/08/03 10:19:12;;;;;;;0.70;0.30;;;29.20;50.00;28.80;95584.00;;;;5048722;28;20201;-83
2023/08/03 10:21:39;;;;;;;1.23;0.30;;;29.30;50.00;28.90;95586.00;;;;5046667;28;20196;-83
2023/08/03 10:24:14;;;;;;;1.67;0.40;;;29.40;48.70;28.90;95608.00;;;;5048274;28;20709;-82
2023/08/03 10:26:43;;;;;;;0.82;0.28;;;29.40;47.80;28.90;95587.00;;;;5048900;28;20196;-82
2023/08/03 10:29:10;;;;;;;0.52;0.30;;;29.50;48.90;29.00;95586.00;;;;5046659;28;20230;-83
2023/08/03 10:31:55;;;;;;;0.40;0.30;;;29.60;49.50;29.00;95595.00;;;;5050911;28;20213;-83
2023/08/03 10:34:26;;;;;;;0.30;0.13;;;29.60;47.70;29.10;95605.00;;;;5050788;28;20214;-83
2023/08/03 10:36:55;;;;;;;0.50;0.20;;;29.70;48.50;29.20;95590.00;;;;5050391;28;20207;-84
2023/08/03 10:39:48;;;;;;;0.70;0.25;;;29.80;48.30;29.30;95588.00;;;;5050605;28;20274;-83
2023/08/03 10:42:26;;;;;;;0.40;0.30;;;29.90;46.90;29.40;95602.00;;;;5046663;28;20234;-83
2023/08/03 10:44:55;;;;;;;0.73;0.35;;;30.00;46.80;29.40;95600.00;;;;5051213;28;20220;-82
2023/08/03 10:47:24;;;;;;;0.20;0.20;;;30.00;47.80;29.40;95599.00;;;;5051348;28;20204;-83
2023/08/03 10:49:57;;;;;;;0.57;0.20;;;30.00;47.50;29.40;95604.00;;;;5037721;28;20228;-80
2023/08/03 10:52:29;;;;;;;0.38;0.28;;;30.00;47.60;29.50;95607.00;;;;5056007;28;20639;-82
2023/08/03 10:55:00;;;;;;;0.77;0.40;;;30.00;47.90;29.50;95609.00;;;;5055726;28;20248;-80
2023/08/03 10:57:30;;;;;;;0.43;0.28;;;30.00;46.80;29.50;95614.00;;;;5055126;28;20242;-81
2023/08/03 11:00:03;;;;;;;0.47;0.10;;;30.00;45.50;29.50;95606.00;;;;5055492;28;20200;-81
2023/08/03 11:02:32;;;;;;;0.25;0.10;;;30.00;46.20;29.50;95619.00;;;;5053155;28;20212;-81
2023/08/03 11:05:01;;;;;;;1.17;0.30;;;30.00;45.80;29.40;95617.00;;;;5053587;28;20244;-81
2023/08/03 11:07:32;;;;;;;1.20;0.20;;;29.90;45.30;29.40;95606.00;;;;5055484;28;20201;-80
2023/08/03 11:10:04;;;;;;;0.70;0.30;;;29.80;45.10;29.20;95603.00;;;;5052650;28;20220;-81